Time;durP1;ratioP1;P1;durP2;ratioP2;P2;SDS_P1;SDS_P2;PMS_P1;PMS_P2;Temp;Humidity;BMP_temperature;BMP_pressure;BME280_temperature;BME280_humidity;BME280_pressure;Samples;Min_cycle;Max_cycle;Signal;HPM_P1;HPM_P2
2022/10/11 00:02:37;;;;;;;;;;;8.30;99.90;;;;;;8401850;28;19928;-79
2022/10/11 00:06:42;;;;;;;;;;;8.20;99.90;;;;;;8417259;28;19919;-78
2022/10/11 00:10:43;;;;;;;;;;;8.20;99.90;;;;;;8420798;28;19928;-79
2022/10/11 00:14:45;;;;;;;;;;;8.10;99.90;;;;;;8411358;28;19930;-79
2022/10/11 00:18:47;;;;;;;;;;;8.10;99.90;;;;;;8418658;28;19928;-79
2022/10/11 00:22:48;;;;;;;;;;;8.00;99.90;;;;;;8435810;28;19928;-79
2022/10/11 00:26:50;;;;;;;;;;;8.00;99.90;;;;;;8409800;28;20376;-79
2022/10/11 00:30:52;;;;;;;;;;;7.90;99.90;;;;;;8424368;28;20297;-79
2022/10/11 00:34:55;;;;;;;;;;;7.90;99.90;;;;;;8409543;28;19920;-79
2022/10/11 00:38:56;;;;;;;;;;;7.90;99.90;;;;;;8422270;28;20335;-79
2022/10/11 00:42:58;;;;;;;;;;;7.90;99.90;;;;;;8422196;28;19924;-79
2022/10/11 00:47:02;;;;;;;;;;;7.80;99.90;;;;;;8414843;28;19926;-79
2022/10/11 00:51:05;;;;;;;;;;;7.80;99.90;;;;;;8424649;28;19928;-79
2022/10/11 00:55:10;;;;;;;;;;;7.70;99.90;;;;;;8411182;28;20022;-79
2022/10/11 00:59:13;;;;;;;;;;;7.70;99.90;;;;;;8432911;28;19920;-79
2022/10/11 01:03:16;;;;;;;;;;;7.70;99.90;;;;;;8414222;28;19935;-79
2022/10/11 01:07:18;;;;;;;;;;;7.60;99.90;;;;;;8416213;28;20420;-79
2022/10/11 01:11:22;;;;;;;;;;;7.60;99.90;;;;;;8402136;28;19920;-78
2022/10/11 01:15:33;;;;;;;;;;;7.50;99.90;;;;;;8424673;28;19926;-79
2022/10/11 01:19:52;;;;;;;;;;;7.50;99.90;;;;;;8418508;28;19972;-79
2022/10/11 01:24:06;;;;;;;;;;;7.50;99.90;;;;;;8428984;28;19920;-78
2022/10/11 01:28:15;;;;;;;;;;;7.50;99.90;;;;;;8428692;28;19927;-79
2022/10/11 01:32:28;;;;;;;;;;;7.40;99.90;;;;;;8418795;28;19928;-79
2022/10/11 01:36:36;;;;;;;;;;;7.30;99.90;;;;;;8410178;28;19924;-79
2022/10/11 01:40:40;;;;;;;;;;;7.30;99.90;;;;;;8415366;28;19928;-79
2022/10/11 01:44:44;;;;;;;;;;;7.30;99.90;;;;;;8420826;28;19920;-79
2022/10/11 01:48:47;;;;;;;;;;;7.20;99.90;;;;;;8407487;28;19936;-79
2022/10/11 01:52:49;;;;;;;;;;;7.20;99.90;;;;;;8412731;28;19920;-79
2022/10/11 01:56:57;;;;;;;;;;;7.20;99.90;;;;;;8416728;28;19935;-79
2022/10/11 02:01:18;;;;;;;;;;;7.10;99.90;;;;;;8426007;28;20016;-79
2022/10/11 02:05:20;;;;;;;;;;;7.10;99.90;;;;;;8419986;28;19928;-79
2022/10/11 02:09:37;;;;;;;;;;;7.10;99.90;;;;;;8406852;28;19927;-79
2022/10/11 02:13:39;;;;;;;;;;;7.10;99.90;;;;;;8437957;28;19928;-79
2022/10/11 02:17:48;;;;;;;;;;;7.00;99.90;;;;;;8417349;28;20012;-79
2022/10/11 02:21:52;;;;;;;;;;;7.00;99.90;;;;;;8404653;28;19926;-79
2022/10/11 02:25:54;;;;;;;;;;;7.00;99.90;;;;;;8436316;28;19924;-79
2022/10/11 02:29:58;;;;;;;;;;;7.00;99.90;;;;;;8417950;28;20029;-79
2022/10/11 02:34:06;;;;;;;;;;;6.90;99.90;;;;;;8401638;28;20271;-79
2022/10/11 02:38:13;;;;;;;;;;;6.90;99.90;;;;;;8434906;27;19923;-79
2022/10/11 02:42:25;;;;;;;;;;;6.80;99.90;;;;;;8453595;27;19928;-79
2022/10/11 02:46:29;;;;;;;;;;;6.80;99.90;;;;;;8420367;28;19926;-79
2022/10/11 02:50:31;;;;;;;;;;;6.70;99.90;;;;;;8402681;28;19927;-79
2022/10/11 02:54:33;;;;;;;;;;;6.70;99.90;;;;;;8424955;28;19920;-78
2022/10/11 02:58:34;;;;;;;;;;;6.70;99.90;;;;;;8433520;28;19928;-79
2022/10/11 03:02:36;;;;;;;;;;;6.70;99.90;;;;;;8423042;28;19920;-80
2022/10/11 03:06:37;;;;;;;;;;;6.70;99.90;;;;;;8424774;28;19924;-79
2022/10/11 03:10:39;;;;;;;;;;;6.60;99.90;;;;;;8420193;28;19920;-79
2022/10/11 03:14:41;;;;;;;;;;;6.60;99.90;;;;;;8430728;28;19924;-79
2022/10/11 03:18:43;;;;;;;;;;;6.60;99.90;;;;;;8418702;28;19924;-79
2022/10/11 03:22:44;;;;;;;;;;;6.50;99.90;;;;;;8421841;28;20019;-79
2022/10/11 03:26:46;;;;;;;;;;;6.50;99.90;;;;;;8437006;28;19941;-79
2022/10/11 03:30:48;;;;;;;;;;;6.50;99.90;;;;;;8430766;28;19951;-79
2022/10/11 03:34:50;;;;;;;;;;;6.50;99.90;;;;;;8414376;28;20011;-80
2022/10/11 03:38:51;;;;;;;;;;;6.40;99.90;;;;;;8418499;28;20015;-79
2022/10/11 03:42:55;;;;;;;;;;;6.40;99.90;;;;;;8431159;28;20443;-79
2022/10/11 03:46:56;;;;;;;;;;;6.40;99.90;;;;;;8417481;28;19927;-79
2022/10/11 03:50:58;;;;;;;;;;;6.40;99.90;;;;;;8418637;28;19939;-79
2022/10/11 03:55:00;;;;;;;;;;;6.40;99.90;;;;;;8434224;28;19924;-79
2022/10/11 03:59:02;;;;;;;;;;;6.30;99.90;;;;;;8431934;28;19920;-79
2022/10/11 04:03:03;;;;;;;;;;;6.30;99.90;;;;;;8413067;28;19924;-79
2022/10/11 04:07:05;;;;;;;;;;;6.30;99.90;;;;;;8424209;28;19939;-79
2022/10/11 04:11:07;;;;;;;;;;;6.30;99.90;;;;;;8442534;28;19930;-79
2022/10/11 04:15:11;;;;;;;;;;;6.20;99.90;;;;;;8436610;28;19923;-79
2022/10/11 04:19:13;;;;;;;;;;;6.20;99.90;;;;;;8399692;28;19942;-78
2022/10/11 04:23:14;;;;;;;;;;;6.20;99.90;;;;;;8418429;28;19919;-79
2022/10/11 04:27:16;;;;;;;;;;;6.20;99.90;;;;;;8425975;28;19928;-79
2022/10/11 04:31:17;;;;;;;;;;;6.10;99.90;;;;;;8434310;28;20020;-79
2022/10/11 04:35:19;;;;;;;;;;;6.10;99.90;;;;;;8437398;28;19934;-79
2022/10/11 04:39:21;;;;;;;;;;;6.10;99.90;;;;;;8427627;28;19926;-79
2022/10/11 04:43:22;;;;;;;;;;;6.10;99.90;;;;;;8433565;27;19928;-78
2022/10/11 04:47:24;;;;;;;;;;;6.00;99.90;;;;;;8427135;28;19924;-79
2022/10/11 04:51:26;;;;;;;;;;;6.00;99.90;;;;;;8402536;28;19951;-79
2022/10/11 04:55:28;;;;;;;;;;;6.00;99.90;;;;;;8415652;28;20000;-79
2022/10/11 04:59:29;;;;;;;;;;;5.90;99.90;;;;;;8442910;28;19920;-79
2022/10/11 05:03:31;;;;;;;;;;;5.90;99.90;;;;;;8431357;28;20010;-79
2022/10/11 05:07:34;;;;;;;;;;;5.90;99.90;;;;;;8435288;28;19927;-79
2022/10/11 05:11:35;;;;;;;;;;;5.80;99.90;;;;;;8417345;28;19993;-79
2022/10/11 05:15:37;;;;;;;;;;;5.80;99.90;;;;;;8426256;28;19970;-79
2022/10/11 05:19:39;;;;;;;;;;;5.80;99.90;;;;;;8407850;28;19923;-79
2022/10/11 05:23:41;;;;;;;;;;;5.80;99.90;;;;;;8424167;28;19919;-79
2022/10/11 05:27:42;;;;;;;;;;;5.80;99.90;;;;;;8435734;28;19942;-79
2022/10/11 05:31:44;;;;;;;;;;;5.80;99.90;;;;;;8432202;28;19927;-79
2022/10/11 05:35:45;;;;;;;;;;;5.80;99.90;;;;;;8422817;28;19927;-79
2022/10/11 05:39:47;;;;;;;;;;;5.70;99.90;;;;;;8424492;28;19924;-79
2022/10/11 05:43:49;;;;;;;;;;;5.70;99.90;;;;;;8420756;28;20354;-79
2022/10/11 05:47:50;;;;;;;;;;;5.70;99.90;;;;;;8428057;28;19931;-79
2022/10/11 05:51:52;;;;;;;;;;;5.70;99.90;;;;;;8427500;28;19956;-79
2022/10/11 05:55:53;;;;;;;;;;;5.70;99.90;;;;;;8435834;28;20314;-79
2022/10/11 05:59:55;;;;;;;;;;;5.70;99.90;;;;;;8429878;28;19928;-79
2022/10/11 06:03:57;;;;;;;;;;;5.70;99.90;;;;;;8447183;28;19984;-79
2022/10/11 06:07:58;;;;;;;;;;;5.70;99.90;;;;;;8450843;28;20359;-79
2022/10/11 06:12:00;;;;;;;;;;;5.60;99.90;;;;;;8464419;28;19941;-79
2022/10/11 06:16:03;;;;;;;;;;;5.60;99.90;;;;;;8425573;28;19920;-79
2022/10/11 06:20:05;;;;;;;;;;;5.60;99.90;;;;;;8434898;28;19920;-78
2022/10/11 06:24:08;;;;;;;;;;;5.70;99.90;;;;;;8408208;28;19989;-79
2022/10/11 06:28:09;;;;;;;;;;;5.70;99.90;;;;;;8441450;28;19963;-79
2022/10/11 06:32:14;;;;;;;;;;;5.70;99.90;;;;;;8448368;28;19931;-79
2022/10/11 06:36:16;;;;;;;;;;;5.70;99.90;;;;;;8438119;28;19926;-79
2022/10/11 06:40:17;;;;;;;;;;;5.70;99.90;;;;;;8440132;28;19925;-78
2022/10/11 06:44:19;;;;;;;;;;;5.80;99.90;;;;;;8469994;27;20022;-78
2022/10/11 06:48:20;;;;;;;;;;;5.90;99.90;;;;;;8437708;28;20010;-78
2022/10/11 06:52:22;;;;;;;;;;;6.00;99.90;;;;;;8410109;28;19962;-78
2022/10/11 06:56:25;;;;;;;;;;;6.10;99.90;;;;;;8439201;28;20389;-79
2022/10/11 07:00:26;;;;;;;;;;;6.20;99.90;;;;;;8418013;28;19921;-78
2022/10/11 07:04:28;;;;;;;;;;;6.20;99.90;;;;;;8438611;28;20019;-78
2022/10/11 07:08:29;;;;;;;;;;;6.30;99.90;;;;;;8417931;28;19971;-79
2022/10/11 07:12:31;;;;;;;;;;;6.30;99.90;;;;;;8435432;28;19920;-79
2022/10/11 07:16:34;;;;;;;;;;;6.30;99.90;;;;;;8446397;28;19926;-78
2022/10/11 07:20:36;;;;;;;;;;;6.40;99.90;;;;;;8406611;28;20228;-79
2022/10/11 07:24:38;;;;;;;;;;;6.40;99.90;;;;;;8441776;28;19924;-79
2022/10/11 07:28:40;;;;;;;;;;;6.50;99.90;;;;;;8446424;28;19984;-79
2022/10/11 07:32:41;;;;;;;;;;;6.60;99.90;;;;;;8449731;28;19926;-78
2022/10/11 07:36:43;;;;;;;;;;;6.70;99.90;;;;;;8442869;28;20361;-79
2022/10/11 07:40:45;;;;;;;;;;;6.80;99.90;;;;;;8436017;28;20023;-79
2022/10/11 07:44:47;;;;;;;;;;;6.90;99.90;;;;;;8450816;28;19920;-79
2022/10/11 07:48:51;;;;;;;;;;;6.90;99.90;;;;;;8437854;28;19930;-79
2022/10/11 07:52:53;;;;;;;;;;;7.10;99.90;;;;;;8445713;28;19923;-78
2022/10/11 07:56:54;;;;;;;;;;;7.20;99.90;;;;;;8452313;28;20347;-78
2022/10/11 08:00:56;;;;;;;;;;;7.40;99.90;;;;;;8439964;28;19920;-79
2022/10/11 08:04:58;;;;;;;;;;;7.50;99.90;;;;;;8459765;28;19931;-79
2022/10/11 08:09:00;;;;;;;;;;;7.70;99.90;;;;;;8443647;28;19924;-79
2022/10/11 08:13:01;;;;;;;;;;;7.80;99.90;;;;;;8441431;28;20347;-79
2022/10/11 08:17:05;;;;;;;;;;;8.00;99.90;;;;;;8433567;28;20335;-78
2022/10/11 08:21:11;;;;;;;;;;;8.10;99.90;;;;;;8418316;28;20004;-79
2022/10/11 08:25:13;;;;;;;;;;;8.30;99.90;;;;;;8419581;28;19920;-79
2022/10/11 08:29:14;;;;;;;;;;;8.40;99.90;;;;;;8447582;28;19946;-79
2022/10/11 08:33:17;;;;;;;;;;;8.60;99.90;;;;;;8454971;28;19919;-79
2022/10/11 08:37:18;;;;;;;;;;;8.90;99.90;;;;;;8427001;28;19930;-78
2022/10/11 08:41:36;;;;;;;;;;;9.10;99.90;;;;;;8446854;28;19928;-79
2022/10/11 08:45:41;;;;;;;;;;;9.30;99.90;;;;;;8444016;28;20014;-78
2022/10/11 08:49:42;;;;;;;;;;;9.50;99.90;;;;;;8447010;28;19946;-78
2022/10/11 08:53:52;;;;;;;;;;;9.70;99.90;;;;;;8437265;28;20010;-79
2022/10/11 08:57:55;;;;;;;;;;;9.80;99.90;;;;;;8416203;28;19951;-79
2022/10/11 09:02:10;;;;;;;;;;;10.00;99.90;;;;;;8431223;28;19923;-79
2022/10/11 09:06:31;;;;;;;;;;;10.20;99.90;;;;;;8450151;28;19926;-78
2022/10/11 09:11:02;;;;;;;;;;;10.40;99.90;;;;;;8419947;28;20381;-79
2022/10/11 09:15:22;;;;;;;;;;;10.70;99.90;;;;;;8360443;28;20011;-79
2022/10/11 09:19:39;;;;;;;;;;;11.00;99.90;;;;;;8452787;28;19926;-79
2022/10/11 09:23:56;;;;;;;;;;;11.30;99.90;;;;;;8447095;28;19920;-79
2022/10/11 09:27:57;;;;;;;;;;;11.70;99.90;;;;;;8439746;28;20007;-79
2022/10/11 09:32:10;;;;;;;;;;;12.00;99.90;;;;;;8442050;28;19927;-79
2022/10/11 09:36:18;;;;;;;;;;;12.30;99.90;;;;;;8448107;28;20006;-79
2022/10/11 09:40:38;;;;;;;;;;;12.40;99.90;;;;;;8442003;28;19974;-79
2022/10/11 09:44:44;;;;;;;;;;;12.50;99.90;;;;;;8439550;28;19957;-79
2022/10/11 09:48:46;;;;;;;;;;;12.60;99.90;;;;;;8459765;28;19927;-79
2022/10/11 09:52:49;;;;;;;;;;;12.70;99.90;;;;;;8427705;28;20309;-79
2022/10/11 09:56:50;;;;;;;;;;;12.80;99.90;;;;;;8451750;28;19923;-78
2022/10/11 10:00:56;;;;;;;;;;;12.90;99.90;;;;;;8442435;28;19927;-79
2022/10/11 10:04:58;;;;;;;;;;;12.90;99.90;;;;;;8438685;28;19920;-79
2022/10/11 10:09:38;;;;;;;;;;;13.20;99.90;;;;;;8441107;28;20133;-80
2022/10/11 10:13:45;;;;;;;;;;;13.40;99.90;;;;;;8338106;28;19924;-80
2022/10/11 10:17:47;;;;;;;;;;;13.90;99.90;;;;;;8375712;28;19920;-79
2022/10/11 10:21:50;;;;;;;;;;;14.30;99.90;;;;;;8457032;28;19919;-79
2022/10/11 10:26:07;;;;;;;;;;;14.70;99.90;;;;;;8434126;28;20269;-78
2022/10/11 10:30:18;;;;;;;;;;;15.00;99.90;;;;;;8447987;28;20236;-80
2022/10/11 10:34:31;;;;;;;;;;;15.40;99.90;;;;;;8437333;28;20294;-79
2022/10/11 10:38:36;;;;;;;;;;;15.80;99.90;;;;;;8423596;28;19920;-79
2022/10/11 10:42:37;;;;;;;;;;;16.30;99.90;;;;;;8451261;28;19924;-80
2022/10/11 10:46:58;;;;;;;;;;;16.50;99.90;;;;;;8455312;28;19930;-80
2022/10/11 10:51:04;;;;;;;;;;;16.80;99.90;;;;;;8456229;28;19919;-79
2022/10/11 10:55:25;;;;;;;;;;;17.00;99.90;;;;;;8454849;28;19923;-80
2022/10/11 10:59:35;;;;;;;;;;;17.30;99.90;;;;;;8452308;28;19920;-80
2022/10/11 11:03:40;;;;;;;;;;;17.40;99.90;;;;;;8450249;28;19920;-80
2022/10/11 11:07:44;;;;;;;;;;;17.70;99.90;;;;;;8435119;28;20268;-80
2022/10/11 11:12:12;;;;;;;;;;;17.80;99.90;;;;;;8455194;28;19927;-80
2022/10/11 11:16:14;;;;;;;;;;;17.90;99.90;;;;;;8458982;28;19920;-80
2022/10/11 11:20:15;;;;;;;;;;;17.80;99.90;;;;;;8409752;28;19927;-82
2022/10/11 11:24:17;;;;;;;;;;;17.80;99.90;;;;;;8444884;28;19939;-80
2022/10/11 11:28:31;;;;;;;;;;;17.60;99.90;;;;;;8441321;28;20239;-79
2022/10/11 11:32:40;;;;;;;;;;;17.30;99.90;;;;;;8445229;28;20363;-80
2022/10/11 11:36:48;;;;;;;;;;;17.30;99.90;;;;;;8439058;28;19958;-79
2022/10/11 11:40:55;;;;;;;;;;;17.40;99.90;;;;;;8434130;28;19919;-79
2022/10/11 11:45:01;;;;;;;;;;;17.60;99.90;;;;;;8455519;28;20030;-80
2022/10/11 11:49:16;;;;;;;;;;;18.00;99.90;;;;;;8446033;28;20050;-80
2022/10/11 11:53:23;;;;;;;;;;;18.40;99.90;;;;;;8444224;28;20345;-80
2022/10/11 11:57:54;;;;;;;;;;;18.60;99.90;;;;;;8408542;28;19939;-79
2022/10/11 12:02:23;;;;;;;;;;;18.40;99.90;;;;;;8391715;28;19959;-80
2022/10/11 12:06:27;;;;;;;;;;;18.20;99.90;;;;;;8400541;28;20371;-80
2022/10/11 12:10:31;;;;;;;;;;;17.90;99.90;;;;;;8397085;28;19924;-80
2022/10/11 12:14:33;;;;;;;;;;;17.60;99.90;;;;;;8399438;28;20385;-79
2022/10/11 12:18:46;;;;;;;;;;;17.30;99.90;;;;;;8395266;28;20366;-79
2022/10/11 12:22:57;;;;;;;;;;;16.90;99.90;;;;;;8388705;28;19928;-79
2022/10/11 12:27:18;;;;;;;;;;;16.80;99.90;;;;;;8409844;28;19920;-79
2022/10/11 12:31:22;;;;;;;;;;;16.80;99.90;;;;;;8407307;28;19956;-80
2022/10/11 12:35:27;;;;;;;;;;;16.90;99.90;;;;;;8379570;28;20245;-80
2022/10/11 12:39:37;;;;;;;;;;;17.10;99.90;;;;;;8400708;28;19924;-79
2022/10/11 12:43:48;;;;;;;;;;;17.10;99.90;;;;;;8395942;28;19923;-80
2022/10/11 12:47:58;;;;;;;;;;;17.20;99.90;;;;;;8408699;28;20736;-79
2022/10/11 12:52:19;;;;;;;;;;;17.20;99.90;;;;;;8397312;28;19989;-80
2022/10/11 12:56:20;;;;;;;;;;;17.10;99.90;;;;;;8407239;28;19935;-79
2022/10/11 13:00:29;;;;;;;;;;;17.00;99.90;;;;;;8408721;28;19951;-79
2022/10/11 13:04:32;;;;;;;;;;;17.00;99.90;;;;;;8392445;28;19924;-80
2022/10/11 13:08:35;;;;;;;;;;;17.00;99.90;;;;;;8389446;28;19942;-80
2022/10/11 13:12:40;;;;;;;;;;;17.00;99.90;;;;;;8405801;28;19924;-80
2022/10/11 13:16:45;;;;;;;;;;;17.00;99.90;;;;;;8401905;28;20073;-80
2022/10/11 13:20:46;;;;;;;;;;;17.10;99.90;;;;;;8405272;28;19920;-80
2022/10/11 13:24:48;;;;;;;;;;;17.10;99.90;;;;;;8406414;28;20273;-81
2022/10/11 13:28:50;;;;;;;;;;;17.20;99.90;;;;;;8395445;28;19966;-80
2022/10/11 13:32:52;;;;;;;;;;;17.10;99.90;;;;;;8406431;28;19931;-80
2022/10/11 13:36:57;;;;;;;;;;;17.00;99.90;;;;;;8402619;28;20477;-80
2022/10/11 13:41:01;;;;;;;;;;;16.90;99.90;;;;;;8397222;28;20371;-80
2022/10/11 13:45:03;;;;;;;;;;;17.10;99.90;;;;;;8419921;28;19991;-79
2022/10/11 13:49:20;;;;;;;;;;;17.30;99.90;;;;;;8413189;28;19924;-80
2022/10/11 13:53:23;;;;;;;;;;;17.50;99.90;;;;;;8418322;28;20398;-80
2022/10/11 13:57:39;;;;;;;;;;;17.60;99.90;;;;;;8400953;28;19946;-80
2022/10/11 14:01:43;;;;;;;;;;;17.60;99.90;;;;;;8398999;28;19930;-80
2022/10/11 14:05:55;;;;;;;;;;;17.80;99.90;;;;;;8406214;28;19924;-80
2022/10/11 14:09:57;;;;;;;;;;;18.10;99.90;;;;;;8403126;28;19923;-79
2022/10/11 14:13:58;;;;;;;;;;;18.60;99.90;;;;;;8410000;28;19939;-80
2022/10/11 14:18:01;;;;;;;;;;;18.90;99.90;;;;;;8410844;28;19920;-80
2022/10/11 14:22:03;;;;;;;;;;;18.90;99.90;;;;;;8411094;28;19928;-80
2022/10/11 14:26:07;;;;;;;;;;;18.80;99.90;;;;;;8408967;28;19920;-80
2022/10/11 14:30:20;;;;;;;;;;;18.80;99.90;;;;;;8391435;28;19920;-80
2022/10/11 14:34:26;;;;;;;;;;;18.60;99.90;;;;;;8400090;28;19924;-80
2022/10/11 14:38:28;;;;;;;;;;;18.30;99.90;;;;;;8405875;28;19920;-80
2022/10/11 14:42:30;;;;;;;;;;;18.00;99.90;;;;;;8403888;28;19981;-80
2022/10/11 14:46:31;;;;;;;;;;;17.80;99.90;;;;;;8405080;28;19930;-80
2022/10/11 14:50:48;;;;;;;;;;;17.70;99.90;;;;;;8398712;28;19920;-80
2022/10/11 14:54:50;;;;;;;;;;;17.70;99.90;;;;;;8398197;28;19928;-79
2022/10/11 14:58:52;;;;;;;;;;;17.60;99.90;;;;;;8411737;28;20024;-80
2022/10/11 15:02:54;;;;;;;;;;;17.60;99.90;;;;;;8409219;28;19926;-80
2022/10/11 15:06:56;;;;;;;;;;;17.60;99.90;;;;;;8386629;28;20007;-80
2022/10/11 15:10:58;;;;;;;;;;;17.50;99.90;;;;;;8387088;28;19928;-80
2022/10/11 15:14:59;;;;;;;;;;;17.50;99.90;;;;;;8403835;28;19924;-80
2022/10/11 15:19:01;;;;;;;;;;;17.50;99.90;;;;;;8403318;28;19927;-80
2022/10/11 15:23:03;;;;;;;;;;;17.50;99.90;;;;;;8395543;28;22284;-80
2022/10/11 15:27:05;;;;;;;;;;;17.60;99.90;;;;;;8398895;28;19938;-80
2022/10/11 15:31:08;;;;;;;;;;;17.60;99.90;;;;;;8398654;28;20300;-80
2022/10/11 15:35:10;;;;;;;;;;;17.50;99.90;;;;;;8384966;28;19936;-80
2022/10/11 15:39:32;;;;;;;;;;;17.50;99.90;;;;;;8380769;28;19928;-80
2022/10/11 15:43:34;;;;;;;;;;;17.50;99.90;;;;;;8405865;28;19920;-80
2022/10/11 15:47:36;;;;;;;;;;;17.50;99.90;;;;;;8409613;28;19920;-80
2022/10/11 15:51:37;;;;;;;;;;;17.40;99.90;;;;;;8404985;28;20005;-80
2022/10/11 15:55:43;;;;;;;;;;;17.40;99.90;;;;;;8391875;28;19920;-80
2022/10/11 15:59:45;;;;;;;;;;;17.40;99.90;;;;;;8377631;28;20026;-80
2022/10/11 16:03:47;;;;;;;;;;;17.20;99.90;;;;;;8402262;28;19920;-80
2022/10/11 16:07:49;;;;;;;;;;;17.20;99.90;;;;;;8399558;28;19926;-80
2022/10/11 16:11:50;;;;;;;;;;;17.00;99.90;;;;;;8388793;28;19926;-80
2022/10/11 16:15:52;;;;;;;;;;;16.80;99.90;;;;;;8406514;28;19934;-80
2022/10/11 16:19:54;;;;;;;;;;;16.60;99.90;;;;;;8411623;27;19943;-80
2022/10/11 16:23:55;;;;;;;;;;;16.40;99.90;;;;;;8377413;28;19927;-81
2022/10/11 16:27:57;;;;;;;;;;;16.20;99.90;;;;;;8399148;28;19927;-80
2022/10/11 16:31:59;;;;;;;;;;;16.10;99.90;;;;;;8398934;28;19920;-80
2022/10/11 16:36:30;;;;;;;;;;;16.00;99.90;;;;;;8398170;28;19930;-80
2022/10/11 16:40:27;;;;;;;;;;;15.80;99.90;;;;;;8398288;28;20018;-80
2022/10/11 16:44:28;;;;;;;;;;;15.60;99.90;;;;;;8396912;28;20624;-81
2022/10/11 16:48:30;;;;;;;;;;;15.40;99.90;;;;;;8394480;28;20319;-80
2022/10/11 16:52:31;;;;;;;;;;;15.20;99.90;;;;;;8398700;28;20295;-80
2022/10/11 16:56:33;;;;;;;;;;;15.10;99.90;;;;;;8382769;28;19928;-80
2022/10/11 17:00:43;;;;;;;;;;;15.00;99.90;;;;;;8397358;28;20249;-80
2022/10/11 17:04:44;;;;;;;;;;;14.90;99.90;;;;;;8402866;28;19934;-80
2022/10/11 17:08:46;;;;;;;;;;;14.80;99.90;;;;;;8413982;27;19924;-81
2022/10/11 17:12:48;;;;;;;;;;;14.80;99.90;;;;;;8408575;28;20004;-80
2022/10/11 17:16:50;;;;;;;;;;;14.70;99.90;;;;;;8396230;28;19920;-80
2022/10/11 17:20:59;;;;;;;;;;;14.60;99.90;;;;;;8393588;28;20299;-80
2022/10/11 17:25:02;;;;;;;;;;;14.50;99.90;;;;;;8398047;28;19932;-80
2022/10/11 17:29:03;;;;;;;;;;;14.50;99.90;;;;;;8394527;28;19928;-80
2022/10/11 17:33:05;;;;;;;;;;;14.40;99.90;;;;;;8380655;28;19929;-81
2022/10/11 17:37:08;;;;;;;;;;;14.30;99.90;;;;;;8400608;28;19924;-80
2022/10/11 17:41:10;;;;;;;;;;;14.30;99.90;;;;;;8407651;28;20016;-80
2022/10/11 17:45:12;;;;;;;;;;;14.30;99.90;;;;;;8408784;28;19931;-80
2022/10/11 17:49:14;;;;;;;;;;;14.30;99.90;;;;;;8399423;28;19923;-80
2022/10/11 17:53:15;;;;;;;;;;;14.20;99.90;;;;;;8399238;28;19927;-80
2022/10/11 17:57:17;;;;;;;;;;;14.20;99.90;;;;;;8394033;28;19930;-80
2022/10/11 18:01:19;;;;;;;;;;;14.20;99.90;;;;;;8397804;28;19926;-80
2022/10/11 18:05:21;;;;;;;;;;;14.10;99.90;;;;;;8407248;28;21835;-80
2022/10/11 18:09:23;;;;;;;;;;;14.10;99.90;;;;;;8387046;28;20343;-80
2022/10/11 18:13:25;;;;;;;;;;;14.10;99.90;;;;;;8402937;28;19919;-80
2022/10/11 18:17:26;;;;;;;;;;;14.00;99.90;;;;;;8400928;28;20322;-80
2022/10/11 18:21:29;;;;;;;;;;;13.90;99.90;;;;;;8398790;28;19924;-80
2022/10/11 18:25:34;;;;;;;;;;;13.90;99.90;;;;;;8397921;28;19920;-80
2022/10/11 18:29:36;;;;;;;;;;;13.90;99.90;;;;;;8395493;28;20371;-80
2022/10/11 18:33:38;;;;;;;;;;;13.90;99.90;;;;;;8401883;28;19927;-80
2022/10/11 18:37:39;;;;;;;;;;;13.80;99.90;;;;;;8387311;28;20367;-81
2022/10/11 18:41:43;;;;;;;;;;;13.80;99.90;;;;;;8379508;28;19942;-80
2022/10/11 18:45:45;;;;;;;;;;;13.70;99.90;;;;;;8394811;28;19928;-80
2022/10/11 18:49:46;;;;;;;;;;;13.70;99.90;;;;;;8393367;28;20352;-80
2022/10/11 18:53:48;;;;;;;;;;;13.60;99.90;;;;;;8409500;27;19929;-79
2022/10/11 18:57:49;;;;;;;;;;;13.50;99.90;;;;;;8398501;28;20010;-80
2022/10/11 19:01:51;;;;;;;;;;;13.40;99.90;;;;;;8401538;28;19932;-80
2022/10/11 19:05:53;;;;;;;;;;;13.30;99.90;;;;;;8380514;28;20379;-80
2022/10/11 19:09:54;;;;;;;;;;;13.30;99.90;;;;;;8375371;28;20242;-80
2022/10/11 19:13:57;;;;;;;;;;;13.20;99.90;;;;;;8394894;28;20403;-80
2022/10/11 19:17:58;;;;;;;;;;;13.20;99.90;;;;;;8401525;28;19926;-81
2022/10/11 19:22:02;;;;;;;;;;;13.10;99.90;;;;;;8417621;27;19920;-82
2022/10/11 19:26:04;;;;;;;;;;;13.00;99.90;;;;;;8397134;28;19934;-81
2022/10/11 19:30:06;;;;;;;;;;;12.90;99.90;;;;;;8399486;28;20279;-81
2022/10/11 19:34:09;;;;;;;;;;;12.80;99.90;;;;;;8399981;28;20428;-81
2022/10/11 19:38:10;;;;;;;;;;;12.70;99.90;;;;;;8399370;28;19931;-80
2022/10/11 19:42:12;;;;;;;;;;;12.70;99.90;;;;;;8402932;28;19931;-81
2022/10/11 19:46:14;;;;;;;;;;;12.60;99.90;;;;;;8397878;28;19958;-81
2022/10/11 19:50:28;;;;;;;;;;;12.50;99.90;;;;;;8397379;28;19928;-81
2022/10/11 19:54:30;;;;;;;;;;;12.40;99.90;;;;;;8409549;27;19924;-80
2022/10/11 19:58:32;;;;;;;;;;;12.30;99.90;;;;;;8381214;28;19924;-80
2022/10/11 20:02:33;;;;;;;;;;;12.20;99.90;;;;;;8416774;27;19930;-80
2022/10/11 20:06:38;;;;;;;;;;;12.20;99.90;;;;;;8401529;28;20276;-80
2022/10/11 20:10:39;;;;;;;;;;;12.10;99.90;;;;;;8395806;28;20011;-80
2022/10/11 20:14:41;;;;;;;;;;;12.00;99.90;;;;;;8393726;28;19931;-81
2022/10/11 20:18:43;;;;;;;;;;;11.90;99.90;;;;;;8401166;28;20283;-80
2022/10/11 20:22:45;;;;;;;;;;;11.90;99.90;;;;;;8412870;27;19920;-81
2022/10/11 20:26:47;;;;;;;;;;;11.80;99.90;;;;;;8399022;28;20025;-80
2022/10/11 20:30:48;;;;;;;;;;;11.80;99.90;;;;;;8400951;28;20059;-81
2022/10/11 20:34:50;;;;;;;;;;;11.80;99.90;;;;;;8395424;28;20276;-80
2022/10/11 20:38:52;;;;;;;;;;;11.70;99.90;;;;;;8401340;28;19924;-81
2022/10/11 20:42:53;;;;;;;;;;;11.60;99.90;;;;;;8403013;28;20005;-81
2022/10/11 20:46:55;;;;;;;;;;;11.60;99.90;;;;;;8379764;28;19920;-81
2022/10/11 20:51:01;;;;;;;;;;;11.50;99.90;;;;;;8416280;27;20461;-80
2022/10/11 20:55:03;;;;;;;;;;;11.50;99.90;;;;;;8388815;28;20014;-81
2022/10/11 20:59:05;;;;;;;;;;;11.40;99.90;;;;;;8399182;28;19932;-81
2022/10/11 21:03:07;;;;;;;;;;;11.40;99.90;;;;;;8421419;28;19920;-81
2022/10/11 21:07:08;;;;;;;;;;;11.30;99.90;;;;;;8426286;28;20045;-81
2022/10/11 21:11:10;;;;;;;;;;;11.30;99.90;;;;;;8441668;28;19926;-80
2022/10/11 21:15:12;;;;;;;;;;;11.20;99.90;;;;;;8434641;28;19920;-81
2022/10/11 21:19:14;;;;;;;;;;;11.20;99.90;;;;;;8425429;28;19930;-80
2022/10/11 21:23:17;;;;;;;;;;;11.10;99.90;;;;;;8442560;28;19928;-80
2022/10/11 21:27:19;;;;;;;;;;;11.00;99.90;;;;;;8414065;28;20363;-81
2022/10/11 21:31:21;;;;;;;;;;;11.00;99.90;;;;;;8429132;28;20014;-80
2022/10/11 21:35:23;;;;;;;;;;;10.90;99.90;;;;;;8437133;28;19972;-80
2022/10/11 21:44:34;;;;;;;;;;;10.80;99.90;;;;;;8449503;28;20340;-81
2022/10/11 21:48:36;;;;;;;;;;;10.70;99.90;;;;;;8429687;28;20402;-80
2022/10/11 21:52:38;;;;;;;;;;;10.60;99.90;;;;;;8428005;28;19920;-80
2022/10/11 21:56:40;;;;;;;;;;;10.60;99.90;;;;;;8438804;28;19938;-80
2022/10/11 22:00:41;;;;;;;;;;;10.50;99.90;;;;;;8411891;28;19931;-81
2022/10/11 22:04:43;;;;;;;;;;;10.50;99.90;;;;;;8440720;28;19931;-80
2022/10/11 22:08:44;;;;;;;;;;;10.50;99.90;;;;;;8438080;28;19924;-81
2022/10/11 22:12:46;;;;;;;;;;;10.40;99.90;;;;;;8443667;28;19927;-81
2022/10/11 22:16:47;;;;;;;;;;;10.40;99.90;;;;;;8433846;27;19928;-80
2022/10/11 22:20:49;;;;;;;;;;;10.40;99.90;;;;;;8444131;27;19920;-81
2022/10/11 22:24:51;;;;;;;;;;;10.30;99.90;;;;;;8429128;28;19927;-81
2022/10/11 22:28:52;;;;;;;;;;;10.20;99.90;;;;;;8447165;27;19926;-80
2022/10/11 22:32:54;;;;;;;;;;;10.20;99.90;;;;;;8424472;28;20335;-80
2022/10/11 22:36:56;;;;;;;;;;;10.10;99.90;;;;;;8428501;28;19924;-80
2022/10/11 22:40:57;;;;;;;;;;;10.10;99.90;;;;;;8431822;28;20023;-80
2022/10/11 22:44:59;;;;;;;;;;;10.00;99.90;;;;;;8433678;28;20019;-80
2022/10/11 22:49:00;;;;;;;;;;;10.00;99.90;;;;;;8405641;28;19924;-80
2022/10/11 22:53:03;;;;;;;;;;;9.90;99.90;;;;;;8439945;28;19920;-80
2022/10/11 22:57:05;;;;;;;;;;;9.90;99.90;;;;;;8414142;28;19932;-80
2022/10/11 23:01:11;;;;;;;;;;;9.80;99.90;;;;;;8427552;28;19920;-80
2022/10/11 23:05:13;;;;;;;;;;;9.80;99.90;;;;;;8425787;28;19943;-80
2022/10/11 23:09:15;;;;;;;;;;;9.80;99.90;;;;;;8415656;28;19923;-80
2022/10/11 23:13:16;;;;;;;;;;;9.80;99.90;;;;;;8445389;28;20023;-80
2022/10/11 23:17:18;;;;;;;;;;;9.80;99.90;;;;;;8423289;28;19932;-80
2022/10/11 23:21:20;;;;;;;;;;;9.80;99.90;;;;;;8433216;28;19919;-80
2022/10/11 23:25:22;;;;;;;;;;;9.80;99.90;;;;;;8413637;28;19924;-79
2022/10/11 23:29:23;;;;;;;;;;;9.80;99.90;;;;;;8434134;28;20070;-81
2022/10/11 23:33:26;;;;;;;;;;;9.80;99.90;;;;;;8436182;28;19930;-80
2022/10/11 23:37:28;;;;;;;;;;;9.70;99.90;;;;;;8418314;28;19926;-80
2022/10/11 23:41:29;;;;;;;;;;;9.70;99.90;;;;;;8426557;28;20338;-80
2022/10/11 23:45:31;;;;;;;;;;;9.60;99.90;;;;;;8431913;28;19926;-81
2022/10/11 23:49:32;;;;;;;;;;;9.60;99.90;;;;;;8433391;28;19995;-80
2022/10/11 23:53:34;;;;;;;;;;;9.60;99.90;;;;;;8428760;28;20290;-80
2022/10/11 23:57:36;;;;;;;;;;;9.60;99.90;;;;;;8396975;28;20399;-80
